Time;durP1;ratioP1;P1;durP2;ratioP2;P2;SDS_P1;SDS_P2;PMS_P1;PMS_P2;Temp;Humidity;BMP_temperature;BMP_pressure;BME280_temperature;BME280_humidity;BME280_pressure;Samples;Min_cycle;Max_cycle;Signal;HPM_P1;HPM_P2
2022/12/12 00:01:39;;;;;;;18.77;9.65;;;2.70;99.90;;;;;;5060525;28;20048;-43
2022/12/12 00:04:05;;;;;;;28.17;10.70;;;2.70;99.90;;;;;;5059135;28;20207;-38
2022/12/12 00:06:31;;;;;;;20.60;9.82;;;2.70;99.90;;;;;;5058674;28;20078;-40
2022/12/12 00:08:56;;;;;;;22.75;9.93;;;2.70;99.90;;;;;;5064363;28;20472;-45
2022/12/12 00:11:23;;;;;;;21.77;10.45;;;2.70;99.90;;;;;;5066314;28;20034;-42
2022/12/12 00:13:48;;;;;;;23.30;10.00;;;2.70;99.90;;;;;;5056170;28;20029;-42
2022/12/12 00:16:15;;;;;;;20.95;8.80;;;2.70;99.90;;;;;;5062849;28;20037;-42
2022/12/12 00:18:41;;;;;;;21.85;9.50;;;2.70;99.90;;;;;;5059512;28;20037;-41
2022/12/12 00:21:13;;;;;;;21.55;9.98;;;2.70;99.90;;;;;;5070212;28;20503;-46
2022/12/12 00:23:39;;;;;;;23.48;8.93;;;2.70;99.90;;;;;;5065708;28;20021;-43
2022/12/12 00:26:08;;;;;;;23.30;9.88;;;2.70;99.90;;;;;;5071002;28;20107;-43
2022/12/12 00:28:35;;;;;;;22.05;10.32;;;2.80;99.90;;;;;;5063099;28;20032;-41
2022/12/12 00:31:00;;;;;;;26.35;10.45;;;2.90;99.90;;;;;;5072877;28;20031;-45
2022/12/12 00:33:26;;;;;;;20.65;10.20;;;2.80;99.90;;;;;;5071225;28;20425;-45
2022/12/12 00:35:53;;;;;;;21.92;9.77;;;2.80;99.90;;;;;;5063998;28;20029;-44
2022/12/12 00:38:21;;;;;;;21.75;10.70;;;2.70;99.90;;;;;;5072743;28;20384;-49
2022/12/12 00:40:47;;;;;;;21.30;11.15;;;2.70;99.90;;;;;;5060575;28;20048;-42
2022/12/12 00:43:12;;;;;;;24.98;10.70;;;2.70;99.90;;;;;;5052767;28;20480;-48
2022/12/12 00:45:39;;;;;;;27.38;11.50;;;2.70;99.90;;;;;;5053696;28;20021;-42
2022/12/12 00:48:05;;;;;;;27.30;10.35;;;2.80;99.90;;;;;;5053027;28;20484;-43
2022/12/12 00:50:33;;;;;;;22.73;10.30;;;2.80;99.90;;;;;;5070504;28;20137;-44
2022/12/12 00:52:59;;;;;;;24.88;10.00;;;2.60;99.90;;;;;;5072679;28;20425;-74
2022/12/12 00:55:26;;;;;;;31.58;10.38;;;2.50;99.90;;;;;;5072450;28;20032;-42
2022/12/12 00:57:52;;;;;;;21.83;10.13;;;2.50;99.90;;;;;;5071222;28;20072;-44
2022/12/12 01:00:19;;;;;;;25.20;10.68;;;2.50;99.90;;;;;;5072471;28;20029;-43
2022/12/12 01:02:45;;;;;;;26.45;10.43;;;2.50;99.90;;;;;;5062825;28;20021;-46
2022/12/12 01:05:11;;;;;;;20.98;10.23;;;2.40;99.90;;;;;;5062358;28;20082;-41
2022/12/12 01:07:37;;;;;;;31.95;10.85;;;2.40;99.90;;;;;;5070259;28;20095;-43
2022/12/12 01:10:04;;;;;;;23.80;10.68;;;2.30;99.90;;;;;;5072767;28;20102;-43
2022/12/12 01:12:30;;;;;;;19.27;9.50;;;2.30;99.90;;;;;;5071206;28;20017;-44
2022/12/12 01:14:55;;;;;;;24.23;11.15;;;2.20;99.90;;;;;;5071664;28;20800;-46
2022/12/12 01:17:21;;;;;;;25.55;9.57;;;2.20;99.90;;;;;;5072266;28;20029;-43
2022/12/12 01:19:46;;;;;;;25.02;10.15;;;2.20;99.90;;;;;;5058690;28;20059;-46
2022/12/12 01:22:12;;;;;;;25.00;11.38;;;2.10;99.90;;;;;;5070508;28;20108;-44
2022/12/12 01:24:38;;;;;;;24.02;10.45;;;2.20;99.90;;;;;;5072351;28;20028;-43
2022/12/12 01:27:03;;;;;;;27.73;11.95;;;2.20;99.90;;;;;;5063558;28;20377;-44
2022/12/12 01:29:29;;;;;;;25.30;10.68;;;2.20;99.90;;;;;;5059753;28;20028;-48
2022/12/12 01:31:54;;;;;;;23.73;10.07;;;2.20;99.90;;;;;;5061244;28;20449;-41
2022/12/12 01:34:20;;;;;;;24.23;10.15;;;2.20;99.90;;;;;;5075060;28;20028;-43
2022/12/12 01:36:45;;;;;;;29.73;11.00;;;2.20;99.90;;;;;;5059126;28;20032;-43
2022/12/12 01:39:11;;;;;;;25.00;10.82;;;2.20;99.90;;;;;;5068878;28;20055;-44
2022/12/12 01:41:37;;;;;;;22.27;9.88;;;2.20;99.90;;;;;;5065865;28;20528;-47
2022/12/12 01:44:10;;;;;;;27.65;11.55;;;2.10;99.90;;;;;;5075381;28;20024;-44
2022/12/12 01:46:43;;;;;;;21.90;10.50;;;2.10;99.90;;;;;;5071007;28;20389;-42
2022/12/12 01:49:14;;;;;;;27.33;11.10;;;2.20;99.90;;;;;;5058857;28;20025;-39
2022/12/12 01:51:41;;;;;;;24.15;10.30;;;2.20;99.90;;;;;;5058842;28;20392;-45
2022/12/12 01:54:12;;;;;;;23.75;10.35;;;2.20;99.90;;;;;;5075258;28;20044;-45
2022/12/12 01:56:39;;;;;;;23.23;9.70;;;2.20;99.90;;;;;;5075640;28;20068;-44
2022/12/12 01:59:07;;;;;;;24.40;10.38;;;2.20;99.90;;;;;;5075565;28;20396;-63
2022/12/12 02:01:33;;;;;;;22.92;10.02;;;2.20;99.90;;;;;;5057627;28;20468;-47
2022/12/12 02:04:01;;;;;;;22.75;10.32;;;2.20;99.90;;;;;;5055186;28;20013;-42
2022/12/12 02:06:29;;;;;;;32.00;10.70;;;2.20;99.90;;;;;;5055068;28;20476;-45
2022/12/12 02:08:58;;;;;;;22.15;9.55;;;2.10;99.90;;;;;;5059793;28;20032;-45
2022/12/12 02:11:26;;;;;;;27.88;11.25;;;2.00;99.90;;;;;;5056286;28;20100;-44
2022/12/12 02:13:52;;;;;;;21.45;10.30;;;2.10;99.90;;;;;;5060556;28;20449;-42
2022/12/12 02:16:41;;;;;;;22.27;10.95;;;2.00;99.90;;;;;;5058598;28;20032;-39
2022/12/12 02:19:27;;;;;;;25.33;10.25;;;1.90;99.90;;;;;;5056933;28;20033;-42
2022/12/12 02:22:07;;;;;;;23.35;9.68;;;1.80;99.90;;;;;;5054372;28;20033;-43
2022/12/12 02:25:25;;;;;;;21.45;9.23;;;1.70;99.90;;;;;;5056042;28;20082;-42
2022/12/12 02:28:11;;;;;;;26.65;10.63;;;1.60;99.90;;;;;;5056195;28;20037;-43
2022/12/12 02:30:47;;;;;;;21.85;10.93;;;1.50;99.90;;;;;;5061094;28;20025;-43
2022/12/12 02:33:19;;;;;;;34.53;10.55;;;1.40;99.90;;;;;;5054561;28;20079;-44
2022/12/12 02:36:12;;;;;;;23.63;10.38;;;1.30;99.90;;;;;;5067091;28;20033;-40
2022/12/12 02:38:55;;;;;;;23.77;9.90;;;1.20;99.90;;;;;;5064959;28;20025;-45
2022/12/12 02:41:58;;;;;;;27.13;11.43;;;1.20;99.90;;;;;;5054672;28;20485;-42
2022/12/12 02:44:34;;;;;;;22.38;10.48;;;1.20;99.90;;;;;;5056742;28;20111;-41
2022/12/12 02:47:08;;;;;;;28.17;11.15;;;1.30;99.90;;;;;;5060610;28;20496;-43
2022/12/12 02:50:05;;;;;;;30.08;10.48;;;1.30;99.90;;;;;;5058387;28;20025;-43
2022/12/12 02:52:31;;;;;;;27.70;10.93;;;1.40;99.90;;;;;;5074567;28;20033;-72
2022/12/12 02:54:57;;;;;;;29.42;11.30;;;1.40;99.90;;;;;;5074542;28;20067;-42
2022/12/12 02:57:24;;;;;;;24.55;10.85;;;1.40;99.90;;;;;;5058425;28;20072;-46
2022/12/12 03:00:17;;;;;;;26.02;11.63;;;1.40;99.90;;;;;;5055518;28;20647;-43
2022/12/12 03:02:51;;;;;;;25.90;10.60;;;1.40;99.90;;;;;;5053419;28;20151;-43
2022/12/12 03:09:06;;;;;;;24.67;10.55;;;1.30;99.90;;;;;;5055262;28;20396;-43
2022/12/12 03:11:48;;;;;;;20.10;10.25;;;1.30;99.90;;;;;;5053842;28;20113;-43
2022/12/12 03:14:23;;;;;;;22.70;10.23;;;1.20;99.90;;;;;;5056158;28;20469;-42
2022/12/12 03:16:58;;;;;;;24.20;10.38;;;1.20;99.90;;;;;;5079811;28;20024;-43
2022/12/12 03:19:54;;;;;;;25.90;10.95;;;1.10;99.90;;;;;;5084082;28;20534;-43
2022/12/12 03:22:20;;;;;;;23.17;10.60;;;1.10;99.90;;;;;;5053672;28;20025;-44
2022/12/12 03:25:19;;;;;;;27.38;10.57;;;1.00;99.90;;;;;;5053923;28;20070;-43
2022/12/12 03:27:53;;;;;;;28.35;11.20;;;1.00;99.90;;;;;;5053990;28;20031;-42
2022/12/12 03:30:19;;;;;;;27.33;11.43;;;0.90;99.90;;;;;;5056892;28;20040;-43
2022/12/12 03:32:51;;;;;;;24.15;11.60;;;0.80;99.90;;;;;;5054089;28;20066;-41
2022/12/12 03:35:32;;;;;;;23.00;10.48;;;0.70;99.90;;;;;;5064609;28;20560;-42
2022/12/12 03:38:03;;;;;;;28.27;11.30;;;0.60;99.90;;;;;;5052534;28;20086;-42
2022/12/12 03:40:38;;;;;;;22.05;10.20;;;0.50;99.90;;;;;;5056504;28;20025;-34
2022/12/12 03:43:07;;;;;;;29.70;10.98;;;0.50;99.90;;;;;;5054783;28;20481;-34
2022/12/12 03:45:44;;;;;;;28.48;11.02;;;0.60;99.90;;;;;;5065328;28;20029;-34
2022/12/12 03:48:32;;;;;;;23.77;10.50;;;0.60;99.90;;;;;;5064169;28;20021;-33
2022/12/12 03:51:10;;;;;;;23.17;8.88;;;0.50;99.90;;;;;;5052747;28;20119;-34
2022/12/12 03:53:57;;;;;;;30.55;11.13;;;0.50;99.90;;;;;;5059190;28;20097;-32
2022/12/12 03:56:29;;;;;;;26.98;10.73;;;0.50;99.90;;;;;;5062814;28;20031;-37
2022/12/12 03:59:02;;;;;;;25.83;10.60;;;0.50;99.90;;;;;;5058817;28;20077;-57
2022/12/12 04:01:42;;;;;;;32.45;11.13;;;0.50;99.90;;;;;;5069256;28;20115;-54
2022/12/12 04:04:18;;;;;;;26.48;10.68;;;0.50;99.90;;;;;;5058750;28;20528;-31
2022/12/12 04:06:59;;;;;;;27.80;10.30;;;0.50;99.90;;;;;;5059868;28;20480;-32
2022/12/12 04:15:20;;;;;;;24.38;9.02;;;0.40;99.90;;;;;;5073285;28;20094;-44
2022/12/12 04:18:07;;;;;;;23.65;9.23;;;0.40;99.90;;;;;;5070765;28;20480;-41
2022/12/12 04:23:35;;;;;;;30.02;11.57;;;0.40;99.90;;;;;;5053222;28;20031;-41
2022/12/12 04:29:05;;;;;;;30.40;10.02;;;0.50;99.90;;;;;;5073136;28;20082;-40
2022/12/12 04:31:37;;;;;;;26.58;10.50;;;0.50;99.90;;;;;;5071644;28;20456;-43
2022/12/12 04:34:10;;;;;;;25.23;11.20;;;0.50;99.90;;;;;;5072851;28;20021;-40
2022/12/12 04:36:37;;;;;;;31.85;10.48;;;0.50;99.90;;;;;;5064322;28;20036;-40
2022/12/12 04:39:05;;;;;;;25.67;9.77;;;0.40;99.90;;;;;;5067069;28;20016;-40
2022/12/12 04:41:33;;;;;;;29.60;10.20;;;0.40;99.90;;;;;;5072693;28;20526;-40
2022/12/12 04:44:02;;;;;;;34.90;11.38;;;0.30;99.90;;;;;;5072757;28;20461;-41
2022/12/12 04:46:32;;;;;;;26.65;10.15;;;0.30;99.90;;;;;;5065145;28;20024;-40
2022/12/12 04:49:03;;;;;;;27.63;10.90;;;0.30;99.90;;;;;;5061253;28;20032;-40
2022/12/12 04:51:33;;;;;;;27.85;11.40;;;0.20;99.90;;;;;;5069261;28;20469;-41
2022/12/12 04:54:09;;;;;;;32.92;11.15;;;0.30;99.90;;;;;;5072672;28;20029;-41
2022/12/12 04:56:37;;;;;;;26.30;10.88;;;0.30;99.90;;;;;;5059324;28;20473;-42
2022/12/12 04:59:05;;;;;;;27.05;10.48;;;0.20;99.90;;;;;;5052507;28;20063;-41
2022/12/12 05:01:49;;;;;;;28.90;11.25;;;0.20;99.90;;;;;;5067111;28;20183;-44
2022/12/12 05:04:30;;;;;;;25.13;9.73;;;0.20;99.90;;;;;;5062876;28;20029;-41
2022/12/12 05:07:06;;;;;;;26.08;11.05;;;0.10;99.90;;;;;;5056256;28;20439;-39
2022/12/12 05:09:33;;;;;;;29.77;10.80;;;0.20;99.90;;;;;;5071576;28;20121;-39
2022/12/12 05:11:58;;;;;;;31.60;12.25;;;0.30;99.90;;;;;;5068652;28;20041;-41
2022/12/12 05:14:30;;;;;;;26.13;10.13;;;0.30;99.90;;;;;;5058853;28;20081;-40
2022/12/12 05:17:04;;;;;;;25.77;11.15;;;0.50;99.90;;;;;;5062942;28;20025;-40
2022/12/12 05:19:29;;;;;;;27.63;9.98;;;0.40;99.90;;;;;;5055801;28;20532;-40
2022/12/12 05:21:55;;;;;;;28.30;10.23;;;0.30;99.90;;;;;;5055575;28;20108;-42
2022/12/12 05:24:21;;;;;;;31.58;11.63;;;0.20;99.90;;;;;;5067518;28;20107;-41
2022/12/12 05:26:46;;;;;;;34.83;10.88;;;0.20;99.90;;;;;;5053224;28;20475;-42
2022/12/12 05:29:12;;;;;;;30.70;11.32;;;0.20;99.90;;;;;;5055839;28;20036;-41
2022/12/12 05:31:37;;;;;;;29.85;11.00;;;0.20;99.90;;;;;;5055525;28;20029;-56
2022/12/12 05:34:03;;;;;;;25.00;9.50;;;0.10;99.90;;;;;;5056527;28;20489;-41
2022/12/12 05:36:29;;;;;;;29.83;11.10;;;0.00;99.90;;;;;;5057070;28;20480;-42
2022/12/12 05:38:55;;;;;;;26.42;10.77;;;0.00;99.90;;;;;;5055527;28;20049;-43
2022/12/12 05:41:20;;;;;;;27.40;11.00;;;0.00;99.90;;;;;;5069696;28;20401;-45
2022/12/12 05:43:46;;;;;;;31.42;11.38;;;0.00;99.90;;;;;;5055916;28;20021;-41
2022/12/12 05:46:12;;;;;;;31.48;10.80;;;0.10;99.90;;;;;;5054984;28;20032;-41
2022/12/12 05:48:37;;;;;;;31.17;12.07;;;0.20;99.90;;;;;;5069356;28;20243;-43
2022/12/12 05:51:03;;;;;;;29.42;10.95;;;0.30;99.90;;;;;;5057005;28;20028;-41
2022/12/12 05:53:29;;;;;;;25.20;11.05;;;0.20;99.90;;;;;;5054198;28;20021;-41
2022/12/12 05:55:55;;;;;;;31.88;11.45;;;0.30;99.90;;;;;;5067457;28;20028;-43
2022/12/12 05:58:21;;;;;;;29.08;10.55;;;0.20;99.90;;;;;;5069607;28;20091;-43
2022/12/12 06:00:47;;;;;;;31.42;12.32;;;0.30;99.90;;;;;;5073329;28;20071;-42
2022/12/12 06:03:13;;;;;;;29.30;11.63;;;0.20;99.90;;;;;;5067641;28;20380;-41
2022/12/12 06:05:39;;;;;;;30.55;12.23;;;0.20;99.90;;;;;;5054706;28;20021;-71
2022/12/12 06:08:05;;;;;;;30.20;10.88;;;0.10;99.90;;;;;;5075015;28;20016;-37
2022/12/12 06:10:30;;;;;;;38.53;11.35;;;0.10;99.90;;;;;;5072793;28;20051;-37
2022/12/12 06:12:56;;;;;;;27.45;10.35;;;0.00;99.90;;;;;;5073856;28;20033;-33
2022/12/12 06:15:21;;;;;;;34.60;11.75;;;0.00;99.90;;;;;;5061825;28;20037;-37
2022/12/12 06:17:50;;;;;;;34.28;11.15;;;0.10;99.90;;;;;;5054545;28;20126;-34
2022/12/12 06:20:16;;;;;;;;;;;0.10;99.90;;;;;;5056048;28;20016;-33
2022/12/12 06:22:42;;;;;;;26.17;10.45;;;0.20;99.90;;;;;;5069886;28;19909;-33
2022/12/12 06:25:08;;;;;;;27.38;11.90;;;0.30;99.90;;;;;;5075355;28;20522;-36
2022/12/12 06:27:34;;;;;;;25.90;11.23;;;0.20;99.90;;;;;;5073603;28;20036;-33
2022/12/12 06:29:59;;;;;;;31.88;11.02;;;0.10;99.90;;;;;;5066900;28;20458;-33
2022/12/12 06:32:25;;;;;;;25.60;10.30;;;0.20;99.90;;;;;;5053590;28;20120;-33
2022/12/12 06:34:50;;;;;;;28.38;10.98;;;0.00;99.90;;;;;;5080846;28;20035;-37
2022/12/12 06:37:16;;;;;;;26.35;11.15;;;0.00;99.90;;;;;;5074740;28;20058;-35
2022/12/12 06:39:42;;;;;;;33.90;11.07;;;-0.10;99.90;;;;;;5073372;28;20020;-32
2022/12/12 06:42:07;;;;;;;26.17;11.40;;;-0.10;99.90;;;;;;5074089;28;20020;-38
2022/12/12 06:44:33;;;;;;;31.40;11.32;;;-0.10;99.90;;;;;;5054730;28;20030;-33
2022/12/12 06:46:59;;;;;;;33.45;11.68;;;-0.10;99.90;;;;;;5054623;28;20053;-35
2022/12/12 06:49:24;;;;;;;29.73;11.00;;;0.00;99.90;;;;;;5054344;28;20469;-35
2022/12/12 06:51:50;;;;;;;28.63;10.52;;;0.00;99.90;;;;;;5055412;28;20043;-33
2022/12/12 06:54:17;;;;;;;31.88;11.82;;;0.00;99.90;;;;;;5055051;28;20074;-35
2022/12/12 06:56:43;;;;;;;29.65;10.75;;;-0.10;99.90;;;;;;5054432;28;20067;-36
2022/12/12 06:59:14;;;;;;;29.58;11.13;;;-0.10;99.90;;;;;;5054400;28;20382;-50
2022/12/12 07:01:39;;;;;;;33.28;11.50;;;-0.10;99.90;;;;;;5063156;28;20108;-33
2022/12/12 07:04:05;;;;;;;26.92;10.55;;;-0.10;99.90;;;;;;5052958;28;20493;-57
2022/12/12 07:06:31;;;;;;;27.27;10.93;;;-0.10;99.90;;;;;;5056944;28;20024;-33
2022/12/12 07:08:58;;;;;;;28.48;10.25;;;-0.20;99.90;;;;;;5052890;28;20119;-47
2022/12/12 07:11:25;;;;;;;35.95;12.40;;;-0.20;99.90;;;;;;5054649;28;20608;-40
2022/12/12 07:13:53;;;;;;;35.90;11.65;;;-0.30;99.90;;;;;;5054326;28;20056;-33
2022/12/12 07:16:19;;;;;;;36.95;11.43;;;-0.30;99.90;;;;;;5054057;28;20477;-33
2022/12/12 07:18:45;;;;;;;33.17;12.23;;;-0.30;99.90;;;;;;5053474;28;20143;-33
2022/12/12 07:21:14;;;;;;;26.35;10.98;;;-0.30;99.90;;;;;;5053589;28;20025;-34
2022/12/12 07:23:40;;;;;;;31.65;11.77;;;-0.40;99.90;;;;;;5071631;28;20455;-36
2022/12/12 07:26:08;;;;;;;28.85;11.80;;;-0.40;99.90;;;;;;5064422;28;20036;-41
2022/12/12 07:28:35;;;;;;;27.60;11.13;;;-0.40;99.90;;;;;;5064170;28;20070;-41
2022/12/12 07:31:05;;;;;;;31.67;11.05;;;-0.40;99.90;;;;;;5063425;28;20040;-42
2022/12/12 07:33:31;;;;;;;28.25;10.88;;;-0.50;99.90;;;;;;5064538;28;20036;-40
2022/12/12 07:35:58;;;;;;;33.60;12.43;;;-0.40;99.90;;;;;;5057312;28;20530;-37
2022/12/12 07:38:24;;;;;;;31.73;12.35;;;-0.50;99.90;;;;;;5063076;28;20051;-35
2022/12/12 07:40:50;;;;;;;28.35;11.45;;;-0.40;99.90;;;;;;5073525;28;20086;-39
2022/12/12 07:43:16;;;;;;;38.00;10.82;;;-0.40;99.90;;;;;;5070266;28;20040;-36
2022/12/12 07:45:46;;;;;;;37.10;11.57;;;-0.40;99.90;;;;;;5072667;28;20029;-36
2022/12/12 07:48:11;;;;;;;30.77;11.80;;;-0.30;99.90;;;;;;5070389;28;20028;-33
2022/12/12 07:50:38;;;;;;;31.55;11.65;;;-0.30;99.90;;;;;;5053684;28;20469;-34
2022/12/12 07:53:04;;;;;;;27.80;11.88;;;-0.30;99.90;;;;;;5059316;28;20052;-35
2022/12/12 07:55:30;;;;;;;25.33;10.52;;;-0.40;99.90;;;;;;5059218;28;20105;-39
2022/12/12 07:57:56;;;;;;;35.78;11.93;;;-0.30;99.90;;;;;;5071862;28;20045;-34
2022/12/12 08:00:21;;;;;;;30.77;12.10;;;-0.30;99.90;;;;;;5059601;28;20534;-34
2022/12/12 08:02:48;;;;;;;30.05;11.48;;;-0.30;99.90;;;;;;5055373;28;20025;-31
2022/12/12 08:05:15;;;;;;;32.17;11.27;;;-0.30;99.90;;;;;;5058334;28;20021;-33
2022/12/12 08:07:41;;;;;;;32.35;11.93;;;-0.20;99.90;;;;;;5067667;28;20051;-34
2022/12/12 08:10:12;;;;;;;35.42;13.18;;;-0.30;99.90;;;;;;5052824;28;20742;-47
2022/12/12 08:12:38;;;;;;;26.88;11.73;;;-0.30;99.90;;;;;;5072797;28;20036;-38
2022/12/12 08:15:04;;;;;;;27.20;10.93;;;-0.30;99.90;;;;;;5060410;28;20079;-42
2022/12/12 08:17:29;;;;;;;28.85;12.93;;;-0.20;99.90;;;;;;5054383;28;20033;-42
2022/12/12 08:19:55;;;;;;;34.03;12.38;;;-0.20;99.90;;;;;;5051689;28;20021;-40
2022/12/12 08:22:21;;;;;;;31.45;12.77;;;-0.20;99.90;;;;;;5051954;28;20029;-41
2022/12/12 08:24:48;;;;;;;31.83;11.43;;;-0.20;99.90;;;;;;5064144;28;20032;-42
2022/12/12 08:27:15;;;;;;;27.05;9.57;;;-0.20;99.90;;;;;;5068032;28;20024;-39
2022/12/12 08:29:40;;;;;;;24.45;10.20;;;-0.20;99.90;;;;;;5069847;28;20066;-42
2022/12/12 08:32:06;;;;;;;30.65;11.43;;;-0.20;99.90;;;;;;5071641;28;20028;-37
2022/12/12 08:34:31;;;;;;;31.70;11.85;;;-0.10;99.90;;;;;;5055306;28;20132;-38
2022/12/12 08:36:58;;;;;;;23.08;10.38;;;-0.10;99.90;;;;;;5059805;28;20031;-37
2022/12/12 08:39:24;;;;;;;33.90;13.55;;;-0.10;99.90;;;;;;5056606;28;20492;-35
2022/12/12 08:41:50;;;;;;;25.40;11.38;;;0.00;99.90;;;;;;5057025;28;20033;-36
2022/12/12 08:44:18;;;;;;;30.83;11.23;;;0.10;99.90;;;;;;5060172;28;20020;-33
2022/12/12 08:46:44;;;;;;;32.85;12.73;;;0.00;99.90;;;;;;5058511;28;20540;-38
2022/12/12 08:49:10;;;;;;;34.38;13.68;;;0.10;99.90;;;;;;5065875;28;20115;-35
2022/12/12 08:51:40;;;;;;;30.42;12.73;;;0.10;99.90;;;;;;5068580;28;20059;-35
2022/12/12 08:54:07;;;;;;;28.55;11.93;;;0.10;99.90;;;;;;5060878;28;20029;-44
2022/12/12 08:56:33;;;;;;;28.77;12.25;;;0.10;99.90;;;;;;5063024;28;20134;-36
2022/12/12 08:58:58;;;;;;;38.78;13.10;;;0.20;99.90;;;;;;5057578;28;20128;-36
2022/12/12 09:01:26;;;;;;;32.08;12.23;;;0.20;99.90;;;;;;5064833;28;20552;-40
2022/12/12 09:03:53;;;;;;;23.10;8.48;;;0.20;99.90;;;;;;5072252;28;20133;-65
2022/12/12 09:06:20;;;;;;;34.40;13.32;;;0.30;99.90;;;;;;5071125;28;20389;-36
2022/12/12 09:08:46;;;;;;;28.92;11.65;;;0.30;99.90;;;;;;5060385;28;20020;-42
2022/12/12 09:11:12;;;;;;;35.95;11.43;;;0.30;99.90;;;;;;5060859;28;20029;-37
2022/12/12 09:13:38;;;;;;;29.08;11.23;;;0.40;99.90;;;;;;5062176;28;20044;-40
2022/12/12 09:16:05;;;;;;;26.58;11.38;;;0.30;99.90;;;;;;5063030;28;20052;-47
2022/12/12 09:18:31;;;;;;;32.92;12.20;;;0.40;99.90;;;;;;5057298;28;20373;-47
2022/12/12 09:20:57;;;;;;;29.33;10.80;;;0.40;99.90;;;;;;5058687;28;20033;-43
2022/12/12 09:23:25;;;;;;;35.10;11.75;;;0.40;99.90;;;;;;5064481;28;20210;-40
2022/12/12 09:25:52;;;;;;;29.27;11.83;;;0.30;99.90;;;;;;5058134;28;20056;-41
2022/12/12 09:28:19;;;;;;;28.98;10.95;;;0.40;99.90;;;;;;5062415;28;20511;-38
2022/12/12 09:30:45;;;;;;;33.60;11.80;;;0.40;99.90;;;;;;5053840;28;20017;-39
2022/12/12 09:33:12;;;;;;;27.45;10.63;;;0.50;99.90;;;;;;5067876;28;20024;-34
2022/12/12 09:35:38;;;;;;;37.50;12.00;;;0.50;99.90;;;;;;5063411;28;20021;-35
2022/12/12 09:38:04;;;;;;;27.98;11.27;;;0.60;99.90;;;;;;5053262;28;20033;-32
2022/12/12 09:40:52;;;;;;;35.30;11.18;;;0.70;99.90;;;;;;5056596;28;20113;-36
2022/12/12 09:43:25;;;;;;;30.02;11.02;;;0.80;99.90;;;;;;5064999;28;20412;-37
2022/12/12 09:45:51;;;;;;;24.63;9.95;;;0.80;99.90;;;;;;5061564;28;20542;-35
2022/12/12 09:48:37;;;;;;;27.38;10.98;;;0.80;99.90;;;;;;5065739;28;20159;-39
2022/12/12 09:51:03;;;;;;;22.38;9.13;;;0.90;99.90;;;;;;5050742;28;20041;-35
2022/12/12 09:53:28;;;;;;;30.73;11.07;;;0.90;99.90;;;;;;5065100;28;20492;-35
2022/12/12 09:56:20;;;;;;;24.55;9.80;;;0.90;99.90;;;;;;5067009;28;20481;-40
2022/12/12 09:59:10;;;;;;;31.55;10.77;;;0.90;99.90;;;;;;5063078;28;20558;-42
2022/12/12 10:01:43;;;;;;;26.65;10.15;;;0.90;99.90;;;;;;5065139;28;20047;-36
2022/12/12 10:04:36;;;;;;;35.88;13.90;;;0.90;99.90;;;;;;5061702;28;20028;-37
2022/12/12 10:07:14;;;;;;;31.95;11.70;;;0.90;99.90;;;;;;5064183;28;20060;-35
2022/12/12 10:10:16;;;;;;;26.67;11.18;;;1.00;99.90;;;;;;5062157;28;20033;-37
2022/12/12 10:12:44;;;;;;;24.05;11.65;;;1.00;99.90;;;;;;5055080;28;20654;-42
2022/12/12 10:15:38;;;;;;;35.20;11.30;;;0.90;99.90;;;;;;5064682;28;20481;-31
2022/12/12 10:18:10;;;;;;;27.90;11.77;;;1.10;99.90;;;;;;5071865;28;20029;-31
2022/12/12 10:20:47;;;;;;;26.83;11.27;;;1.10;99.90;;;;;;5075176;28;20032;-39
2022/12/12 10:23:29;;;;;;;23.95;10.93;;;1.10;99.90;;;;;;5066501;28;20032;-34
2022/12/12 10:28:59;;;;;;;28.25;10.57;;;1.20;99.90;;;;;;5054626;28;20055;-35
2022/12/12 10:31:53;;;;;;;33.38;9.98;;;1.20;99.90;;;;;;5055774;28;20039;-33
2022/12/12 10:34:59;;;;;;;31.60;11.27;;;1.10;99.90;;;;;;5063039;28;20020;-35
2022/12/12 10:37:45;;;;;;;31.58;12.88;;;1.20;99.90;;;;;;5066965;28;20059;-37
2022/12/12 10:40:25;;;;;;;26.55;10.93;;;1.30;99.90;;;;;;5055177;28;20116;-41
2022/12/12 10:43:00;;;;;;;23.27;10.45;;;1.30;99.90;;;;;;5056785;28;20481;-38
2022/12/12 10:45:41;;;;;;;22.55;9.25;;;1.30;99.90;;;;;;5052263;28;20099;-42
2022/12/12 10:48:07;;;;;;;22.85;8.98;;;1.30;99.90;;;;;;5055902;28;20028;-33
2022/12/12 10:50:54;;;;;;;31.95;10.80;;;1.30;99.90;;;;;;5059466;28;20024;-38
2022/12/12 10:53:20;;;;;;;20.67;9.55;;;1.30;99.90;;;;;;5055675;28;20028;-36
2022/12/12 10:56:01;;;;;;;25.10;9.23;;;1.30;99.90;;;;;;5053831;28;20024;-37
2022/12/12 10:58:41;;;;;;;24.95;10.02;;;1.40;99.90;;;;;;5059914;28;20057;-35
2022/12/12 11:01:34;;;;;;;24.45;9.65;;;1.40;99.90;;;;;;5070623;28;20028;-37
2022/12/12 11:04:02;;;;;;;25.15;9.52;;;1.40;99.90;;;;;;5072262;28;20105;-35
2022/12/12 11:06:37;;;;;;;19.35;8.75;;;1.50;99.90;;;;;;5061280;28;20515;-36
2022/12/12 11:09:08;;;;;;;21.63;7.90;;;1.60;99.90;;;;;;5060698;28;20037;-33
2022/12/12 11:11:37;;;;;;;25.02;7.85;;;1.60;99.90;;;;;;5071596;28;20512;-42
2022/12/12 11:14:21;;;;;;;20.58;7.90;;;1.70;99.90;;;;;;5070675;28;20029;-44
2022/12/12 11:16:46;;;;;;;20.13;8.23;;;1.70;99.90;;;;;;5061126;28;20381;-42
2022/12/12 11:19:20;;;;;;;19.50;8.43;;;1.60;99.90;;;;;;5074057;28;20029;-42
2022/12/12 11:21:47;;;;;;;15.80;7.13;;;1.60;99.90;;;;;;5057994;28;20465;-42
2022/12/12 11:24:17;;;;;;;19.27;7.75;;;1.60;99.90;;;;;;5058301;28;20471;-43
2022/12/12 11:27:01;;;;;;;26.20;8.70;;;1.70;99.90;;;;;;5065587;28;20029;-45
2022/12/12 11:29:39;;;;;;;22.20;8.05;;;1.70;99.90;;;;;;5059210;28;20515;-41
2022/12/12 11:32:22;;;;;;;18.83;7.28;;;1.70;99.90;;;;;;5053905;28;20503;-40
2022/12/12 11:35:03;;;;;;;22.88;8.57;;;1.80;99.90;;;;;;5055710;28;20498;-46
2022/12/12 11:37:43;;;;;;;20.48;8.45;;;1.80;99.90;;;;;;5069198;28;20033;-42
2022/12/12 11:40:23;;;;;;;21.60;8.32;;;1.90;99.90;;;;;;5048508;28;20033;-47
2022/12/12 11:42:49;;;;;;;23.50;8.55;;;1.90;99.90;;;;;;5055783;28;20108;-45
2022/12/12 11:45:15;;;;;;;20.48;8.75;;;2.00;99.90;;;;;;5069894;28;20016;-46
2022/12/12 11:47:43;;;;;;;20.20;8.50;;;2.00;99.90;;;;;;5066849;28;20063;-48
2022/12/12 11:50:28;;;;;;;17.38;7.45;;;2.00;99.90;;;;;;5059539;28;20044;-61
2022/12/12 11:53:01;;;;;;;18.02;7.43;;;2.00;99.90;;;;;;5055840;28;20047;-43
2022/12/12 11:56:00;;;;;;;17.35;7.82;;;2.10;99.90;;;;;;5060938;28;20028;-42
2022/12/12 11:58:36;;;;;;;18.65;9.00;;;2.20;99.90;;;;;;5059510;28;20064;-40
2022/12/12 12:01:43;;;;;;;20.60;7.50;;;2.20;99.90;;;;;;5057612;28;20043;-45
2022/12/12 12:04:29;;;;;;;19.58;7.50;;;2.20;99.90;;;;;;5053152;28;20068;-61
2022/12/12 12:07:21;;;;;;;15.50;6.78;;;2.20;99.90;;;;;;5072063;28;20524;-44
2022/12/12 12:10:04;;;;;;;19.60;8.35;;;2.20;99.90;;;;;;5073213;28;20473;-47
2022/12/12 12:13:01;;;;;;;22.83;8.18;;;2.20;99.90;;;;;;5071628;28;20439;-43
2022/12/12 12:15:36;;;;;;;24.05;8.50;;;2.20;99.90;;;;;;5072318;28;20032;-45
2022/12/12 12:18:29;;;;;;;20.35;7.18;;;2.20;99.90;;;;;;5063336;28;20037;-44
2022/12/12 12:21:13;;;;;;;17.75;7.28;;;2.20;99.90;;;;;;5053041;28;20032;-41
2022/12/12 12:24:01;;;;;;;19.20;7.43;;;2.30;99.90;;;;;;5064041;28;20503;-44
2022/12/12 12:27:00;;;;;;;20.08;7.18;;;2.30;99.90;;;;;;5073023;28;20478;-44
2022/12/12 12:29:34;;;;;;;17.15;7.28;;;2.40;99.90;;;;;;5055419;28;20048;-46
2022/12/12 12:32:28;;;;;;;17.00;7.95;;;2.50;99.90;;;;;;5052808;28;20036;-43
2022/12/12 12:35:20;;;;;;;18.00;7.30;;;2.50;99.90;;;;;;5052859;28;20083;-44
2022/12/12 12:38:10;;;;;;;19.17;7.88;;;2.50;99.90;;;;;;5052885;28;20032;-43
2022/12/12 12:41:01;;;;;;;20.30;8.70;;;2.50;99.90;;;;;;5061346;28;20020;-44
2022/12/12 12:43:47;;;;;;;14.88;7.75;;;2.60;99.90;;;;;;5071117;28;20032;-43
2022/12/12 12:46:31;;;;;;;18.40;8.10;;;2.60;99.90;;;;;;5058317;28;20485;-43
2022/12/12 12:49:07;;;;;;;21.95;8.75;;;2.60;99.90;;;;;;5052284;28;20037;-41
2022/12/12 12:51:37;;;;;;;18.35;7.15;;;2.60;99.90;;;;;;5064051;28;20063;-40
2022/12/12 12:54:34;;;;;;;19.05;7.97;;;2.60;99.90;;;;;;5063915;28;20472;-40
2022/12/12 12:57:11;;;;;;;21.35;8.27;;;2.60;99.90;;;;;;5067958;28;20630;-43
2022/12/12 12:59:44;;;;;;;17.40;7.30;;;2.60;99.90;;;;;;5068007;28;20472;-42
2022/12/12 13:02:33;;;;;;;20.15;8.45;;;2.60;99.90;;;;;;5067478;28;20067;-45
2022/12/12 13:05:19;;;;;;;21.60;8.05;;;2.70;99.90;;;;;;5064993;28;20025;-42
2022/12/12 13:07:54;;;;;;;17.73;7.93;;;2.60;99.90;;;;;;5072621;28;20480;-54
2022/12/12 13:10:24;;;;;;;19.48;7.32;;;2.60;99.90;;;;;;5072502;28;20483;-55
2022/12/12 13:13:17;;;;;;;17.10;7.78;;;2.70;99.90;;;;;;5069929;28;20108;-44
2022/12/12 13:15:51;;;;;;;21.33;8.88;;;2.70;99.90;;;;;;5071459;28;20040;-43
2022/12/12 13:18:17;;;;;;;17.77;8.65;;;2.70;99.90;;;;;;5071974;28;20434;-43
2022/12/12 13:21:10;;;;;;;26.17;9.85;;;2.70;99.90;;;;;;5072789;28;20487;-46
2022/12/12 13:23:46;;;;;;;20.90;7.93;;;2.70;99.90;;;;;;5060501;28;20033;-42